createdAt,value
2023-03-13T00:01:47.743Z,95353.00
2023-03-13T00:04:14.599Z,95353.53
2023-03-13T00:06:42.347Z,95352.69
2023-03-13T00:09:10.530Z,95349.59
2023-03-13T00:11:37.373Z,95357.03
2023-03-13T00:14:04.954Z,95355.16
2023-03-13T00:16:31.759Z,95351.97
2023-03-13T00:18:58.937Z,95361.19
2023-03-13T00:21:26.782Z,95356.09
2023-03-13T00:23:53.462Z,95345.28
2023-03-13T00:26:21.598Z,95365.56
2023-03-13T00:28:48.783Z,95366.44
2023-03-13T00:31:17.650Z,95373.06
2023-03-13T00:33:47.742Z,95369.06
2023-03-13T00:36:16.096Z,95367.16
2023-03-13T00:38:43.333Z,95367.19
2023-03-13T00:41:13.387Z,95367.44
2023-03-13T00:43:41.168Z,95360.97
2023-03-13T00:46:09.758Z,95366.91
2023-03-13T00:48:36.888Z,95366.97
2023-03-13T00:51:03.925Z,95370.91
2023-03-13T00:53:30.920Z,95369.41
2023-03-13T00:55:59.334Z,95357.81
2023-03-13T00:58:27.897Z,95362.13
2023-03-13T01:00:54.531Z,95365.22
2023-03-13T01:03:22.075Z,95370.50
2023-03-13T01:05:58.380Z,95366.06
2023-03-13T01:08:26.520Z,95366.28
2023-03-13T01:11:03.073Z,95368.00
2023-03-13T01:13:33.031Z,95373.66
2023-03-13T01:16:19.629Z,95370.72
2023-03-13T01:18:48.307Z,95368.25
2023-03-13T01:21:16.049Z,95363.44
2023-03-13T01:23:42.755Z,95361.25
2023-03-13T01:26:09.884Z,95357.38
2023-03-13T01:28:37.060Z,95360.19
2023-03-13T01:31:33.055Z,95360.34
2023-03-13T01:34:01.392Z,95374.31
2023-03-13T01:39:13.232Z,95382.63
2023-03-13T01:41:39.846Z,95386.91
2023-03-13T01:44:06.616Z,95388.88
2023-03-13T01:46:35.817Z,95385.84
2023-03-13T01:49:34.480Z,95392.50
2023-03-13T01:52:21.535Z,95391.28
2023-03-13T01:54:59.727Z,95397.94
2023-03-13T01:57:30.679Z,95391.28
2023-03-13T02:00:02.750Z,95389.31
2023-03-13T02:02:41.545Z,95394.78
2023-03-13T02:05:08.404Z,95393.22
2023-03-13T02:07:40.356Z,95396.38
2023-03-13T02:10:08.861Z,95392.91
2023-03-13T02:12:37.078Z,95396.56
2023-03-13T02:15:09.134Z,95392.72
2023-03-13T02:17:36.651Z,95403.47
2023-03-13T02:20:04.635Z,95403.06
2023-03-13T02:22:46.826Z,95405.50
2023-03-13T02:25:24.147Z,95408.63
2023-03-13T02:28:14.180Z,95403.63
2023-03-13T02:30:44.078Z,95416.50
2023-03-13T02:33:12.223Z,95426.06
2023-03-13T02:35:39.108Z,95422.41
2023-03-13T02:38:11.352Z,95429.47
2023-03-13T02:40:39.992Z,95435.88
2023-03-13T02:43:09.183Z,95449.19
2023-03-13T02:45:36.019Z,95452.34
2023-03-13T02:48:02.659Z,95447.34
2023-03-13T02:50:29.957Z,95461.03
2023-03-13T02:53:02.659Z,95468.53
2023-03-13T02:55:32.995Z,95457.50
2023-03-13T02:57:59.672Z,95461.81
2023-03-13T03:00:28.732Z,95466.94
2023-03-13T03:02:56.246Z,95468.66
2023-03-13T03:05:22.932Z,95458.00
2023-03-13T03:07:50.331Z,95458.56
2023-03-13T03:10:17.479Z,95465.06
2023-03-13T03:12:45.279Z,95456.34
2023-03-13T03:15:12.323Z,95465.63
2023-03-13T03:17:43.557Z,95470.16
2023-03-13T03:20:12.185Z,95481.72
2023-03-13T03:22:41.986Z,95486.09
2023-03-13T03:25:09.467Z,95486.09
2023-03-13T03:27:36.873Z,95500.50
2023-03-13T03:30:06.958Z,95505.19
2023-03-13T03:32:35.566Z,95507.25
2023-03-13T03:35:02.818Z,95509.75
2023-03-13T03:37:29.801Z,95511.28
2023-03-13T03:39:57.778Z,95508.97
2023-03-13T03:42:24.929Z,95518.22
2023-03-13T03:44:51.510Z,95513.31
2023-03-13T03:47:18.884Z,95525.22
2023-03-13T03:49:47.716Z,95538.16
2023-03-13T03:52:15.560Z,95543.34
2023-03-13T03:54:43.782Z,95545.03
2023-03-13T03:57:10.772Z,95538.97
2023-03-13T03:59:38.370Z,95538.22
2023-03-13T04:02:09.166Z,95550.66
2023-03-13T04:04:36.231Z,95551.44
2023-03-13T04:07:11.952Z,95550.72
2023-03-13T04:09:40.148Z,95551.09
2023-03-13T04:12:08.990Z,95563.84
2023-03-13T04:14:40.594Z,95572.22
2023-03-13T04:17:10.196Z,95573.84
2023-03-13T04:19:37.268Z,95575.47
2023-03-13T04:22:04.071Z,95580.03
2023-03-13T04:24:32.543Z,95584.19
2023-03-13T04:26:59.272Z,95574.31
2023-03-13T04:29:26.998Z,95583.50
2023-03-13T04:32:01.037Z,95577.31
2023-03-13T04:34:37.684Z,95590.28
2023-03-13T04:37:36.602Z,95591.06
2023-03-13T04:40:21.832Z,95608.44
2023-03-13T04:43:03.754Z,95607.97
2023-03-13T04:45:50.162Z,95613.97
2023-03-13T04:48:35.355Z,95616.66
2023-03-13T04:51:22.052Z,95614.28
2023-03-13T04:54:11.045Z,95616.81
2023-03-13T04:56:44.391Z,95621.88
2023-03-13T04:59:22.644Z,95615.78
2023-03-13T05:02:04.897Z,95616.50
2023-03-13T05:04:59.160Z,95627.22
2023-03-13T05:07:44.468Z,95627.78
2023-03-13T05:10:14.479Z,95625.22
2023-03-13T05:12:45.334Z,95620.66
2023-03-13T05:15:35.467Z,95627.13
2023-03-13T05:18:20.978Z,95625.22
2023-03-13T05:21:00.793Z,95632.41
2023-03-13T05:23:46.451Z,95639.38
2023-03-13T05:26:31.904Z,95653.28
2023-03-13T05:29:18.817Z,95653.25
2023-03-13T05:31:57.868Z,95649.06
2023-03-13T05:34:53.694Z,95653.19
2023-03-13T05:37:36.356Z,95649.88
2023-03-13T05:40:22.588Z,95657.47
2023-03-13T05:43:08.542Z,95654.25
2023-03-13T05:45:44.586Z,95657.69
2023-03-13T05:48:23.193Z,95655.38
2023-03-13T05:51:08.934Z,95658.09
2023-03-13T05:54:01.876Z,95661.75
2023-03-13T05:56:57.923Z,95663.63
2023-03-13T05:59:36.145Z,95664.00
2023-03-13T06:02:23.202Z,95663.81
2023-03-13T06:04:51.281Z,95664.16
2023-03-13T06:07:18.019Z,95671.13
2023-03-13T06:09:44.713Z,95680.81
2023-03-13T06:12:12.087Z,95675.03
2023-03-13T06:14:39.332Z,95678.34
2023-03-13T06:17:22.026Z,95670.38
2023-03-13T06:19:48.678Z,95672.94
2023-03-13T06:22:16.442Z,95678.00
2023-03-13T06:24:44.778Z,95673.06
2023-03-13T06:27:11.365Z,95669.88
2023-03-13T06:29:38.157Z,95681.25
2023-03-13T06:32:05.044Z,95683.59
2023-03-13T06:34:31.892Z,95682.00
2023-03-13T06:36:58.974Z,95650.19
2023-03-13T06:39:25.857Z,95671.47
2023-03-13T06:41:52.397Z,95655.28
2023-03-13T06:44:19.132Z,95647.38
2023-03-13T06:46:45.921Z,95650.88
2023-03-13T06:49:13.471Z,95653.09
2023-03-13T06:51:40.092Z,95662.13
2023-03-13T06:54:06.743Z,95662.84
2023-03-13T06:56:33.505Z,95669.16
2023-03-13T06:59:00.312Z,95667.25
2023-03-13T07:01:27.272Z,95659.78
2023-03-13T07:03:53.987Z,95657.28
2023-03-13T07:06:20.986Z,95654.75
2023-03-13T07:08:47.631Z,95657.16
2023-03-13T07:11:14.751Z,95649.22
2023-03-13T07:13:41.726Z,95656.00
2023-03-13T07:16:10.111Z,95658.19
2023-03-13T07:18:37.242Z,95655.81
2023-03-13T07:21:07.847Z,95652.53
2023-03-13T07:23:35.407Z,95646.25
2023-03-13T07:26:03.843Z,95651.47
2023-03-13T07:28:31.618Z,95645.03
2023-03-13T07:31:17.628Z,95647.84
2023-03-13T07:33:45.113Z,95656.75
2023-03-13T07:36:12.988Z,95640.66
2023-03-13T07:38:39.724Z,95640.88
2023-03-13T07:41:06.522Z,95643.53
2023-03-13T07:43:33.739Z,95642.72
2023-03-13T07:46:02.055Z,95651.28
2023-03-13T07:48:29.852Z,95643.75
2023-03-13T07:50:56.615Z,95644.41
2023-03-13T07:53:23.585Z,95648.97
2023-03-13T07:56:00.807Z,95648.19
2023-03-13T07:58:29.707Z,95643.16
2023-03-13T08:00:56.477Z,95640.50
2023-03-13T08:03:23.897Z,95625.84
2023-03-13T08:06:00.916Z,95629.16
2023-03-13T08:08:27.970Z,95625.06
2023-03-13T08:10:54.552Z,95630.84
2023-03-13T08:13:22.075Z,95630.59
2023-03-13T08:15:48.736Z,95629.94
2023-03-13T08:18:15.365Z,95626.50
2023-03-13T08:20:43.603Z,95622.63
2023-03-13T08:23:11.154Z,95622.16
2023-03-13T08:25:37.875Z,95624.97
2023-03-13T08:28:04.538Z,95629.28
2023-03-13T08:30:32.265Z,95624.03
2023-03-13T08:32:58.923Z,95623.25
2023-03-13T08:35:25.711Z,95621.25
2023-03-13T08:37:52.338Z,95630.78
2023-03-13T08:40:19.249Z,95634.44
2023-03-13T08:42:45.785Z,95635.00
2023-03-13T08:45:12.521Z,95629.91
2023-03-13T08:47:40.141Z,95624.03
2023-03-13T08:50:07.022Z,95623.53
2023-03-13T08:52:33.663Z,95617.63
2023-03-13T08:55:00.373Z,95611.66
2023-03-13T08:57:27.012Z,95611.84
2023-03-13T08:59:53.710Z,95610.59
2023-03-13T09:02:21.017Z,95602.47
2023-03-13T09:04:48.594Z,95609.38
2023-03-13T09:07:15.319Z,95613.19
2023-03-13T09:09:41.903Z,95612.72
2023-03-13T09:12:13.185Z,95607.47
2023-03-13T09:14:48.282Z,95605.03
2023-03-13T09:17:15.874Z,95610.09
2023-03-13T09:19:57.640Z,95597.06
2023-03-13T09:22:26.325Z,95590.38
2023-03-13T09:24:52.974Z,95592.03
2023-03-13T09:27:19.849Z,95597.09
2023-03-13T09:29:46.468Z,95594.88
2023-03-13T09:32:13.295Z,95591.75
2023-03-13T09:34:39.950Z,95592.66
2023-03-13T09:37:06.727Z,95603.78
2023-03-13T09:39:34.340Z,95597.41
2023-03-13T09:42:10.114Z,95590.78
2023-03-13T09:44:44.100Z,95586.75
2023-03-13T09:47:17.343Z,95585.78
2023-03-13T09:50:10.232Z,95583.69
2023-03-13T09:52:41.107Z,95586.28
2023-03-13T09:55:17.306Z,95582.94
2023-03-13T09:57:43.929Z,95585.19
2023-03-13T10:00:14.014Z,95580.66
2023-03-13T10:02:44.572Z,95578.31
2023-03-13T10:05:17.102Z,95582.69
2023-03-13T10:07:43.741Z,95582.03
2023-03-13T10:10:13.986Z,95571.34
2023-03-13T10:12:48.482Z,95560.34
2023-03-13T10:15:24.500Z,95561.84
2023-03-13T10:17:51.494Z,95553.19
2023-03-13T10:20:28.173Z,95543.63
2023-03-13T10:22:58.612Z,95537.56
2023-03-13T10:25:29.916Z,95546.81
2023-03-13T10:27:56.703Z,95529.66
2023-03-13T10:30:25.354Z,95519.88
2023-03-13T10:33:12.109Z,95516.69
2023-03-13T10:35:40.308Z,95507.91
2023-03-13T10:38:11.305Z,95513.72
2023-03-13T10:40:38.324Z,95517.72
2023-03-13T10:43:06.359Z,95505.09
2023-03-13T10:45:35.543Z,95496.88
2023-03-13T10:48:10.672Z,95493.22
2023-03-13T10:50:37.386Z,95502.00
2023-03-13T10:53:08.608Z,95501.47
2023-03-13T10:55:35.360Z,95487.19
2023-03-13T10:58:03.424Z,95483.97
2023-03-13T11:00:39.839Z,95489.31
2023-03-13T11:03:13.620Z,95484.50
2023-03-13T11:05:43.245Z,95475.16
2023-03-13T11:08:21.076Z,95478.13
2023-03-13T11:11:04.224Z,95472.50
2023-03-13T11:13:37.363Z,95455.31
2023-03-13T11:16:23.571Z,95451.31
2023-03-13T11:19:11.391Z,95460.56
2023-03-13T11:21:38.184Z,95455.31
2023-03-13T11:24:10.330Z,95442.41
2023-03-13T11:26:52.400Z,95446.81
2023-03-13T11:29:34.212Z,95441.91
2023-03-13T11:32:07.384Z,95429.50
2023-03-13T11:34:37.825Z,95436.81
2023-03-13T11:37:12.623Z,95431.41
2023-03-13T11:39:51.244Z,95418.69
2023-03-13T11:42:29.922Z,95418.22
2023-03-13T11:45:05.703Z,95418.78
2023-03-13T11:47:35.296Z,95406.94
2023-03-13T11:50:08.049Z,95405.16
2023-03-13T11:52:40.823Z,95393.94
2023-03-13T11:55:16.583Z,95381.53
2023-03-13T11:57:43.336Z,95392.97
2023-03-13T12:00:19.535Z,95385.81
2023-03-13T12:02:49.890Z,95381.53
2023-03-13T12:05:18.538Z,95363.97
2023-03-13T12:07:57.174Z,95365.66
2023-03-13T12:10:40.080Z,95362.38
2023-03-13T12:13:16.228Z,95351.59
2023-03-13T12:15:58.686Z,95360.28
2023-03-13T12:18:25.293Z,95354.22
2023-03-13T12:20:53.547Z,95340.56
2023-03-13T12:23:42.002Z,95337.53
2023-03-13T12:26:32.030Z,95327.47
2023-03-13T12:29:15.240Z,95334.69
2023-03-13T12:31:47.550Z,95331.72
2023-03-13T12:34:33.907Z,95333.06
2023-03-13T12:37:06.810Z,95323.69
2023-03-13T12:39:36.156Z,95320.59
2023-03-13T12:42:14.088Z,95316.09
2023-03-13T12:44:41.012Z,95319.91
2023-03-13T12:47:10.342Z,95324.56
2023-03-13T12:49:46.229Z,95319.59
2023-03-13T12:52:22.525Z,95321.38
2023-03-13T12:55:04.408Z,95325.16
2023-03-13T12:57:50.085Z,95342.56
2023-03-13T13:00:19.485Z,95343.81
2023-03-13T13:02:46.483Z,95322.34
2023-03-13T13:05:20.174Z,95329.44
2023-03-13T13:07:54.576Z,95335.13
2023-03-13T13:10:22.664Z,95332.09
2023-03-13T13:13:09.250Z,95324.00
2023-03-13T13:15:36.410Z,95334.50
2023-03-13T13:18:17.308Z,95324.72
2023-03-13T13:20:45.865Z,95325.03
2023-03-13T13:23:33.897Z,95325.44
2023-03-13T13:26:19.384Z,95316.66
2023-03-13T13:28:46.026Z,95306.66
2023-03-13T13:31:31.660Z,95300.06
2023-03-13T13:33:58.413Z,95298.47
2023-03-13T13:36:29.003Z,95302.88
2023-03-13T13:38:56.513Z,95303.50
2023-03-13T13:41:26.178Z,95298.16
2023-03-13T13:44:12.781Z,95286.84
2023-03-13T13:46:44.310Z,95291.56
2023-03-13T13:49:16.776Z,95282.41
2023-03-13T13:52:06.443Z,95283.63
2023-03-13T13:54:48.043Z,95281.28
2023-03-13T13:57:25.543Z,95278.63
2023-03-13T14:00:15.793Z,95278.97
2023-03-13T14:02:50.289Z,95273.41
2023-03-13T14:05:26.821Z,95275.75
2023-03-13T14:07:53.569Z,95270.34
2023-03-13T14:10:26.796Z,95273.81
2023-03-13T14:12:54.696Z,95274.19
2023-03-13T14:15:26.317Z,95276.00
2023-03-13T14:17:54.712Z,95268.19
2023-03-13T14:20:29.336Z,95266.88
2023-03-13T14:22:58.903Z,95271.53
2023-03-13T14:25:28.010Z,95266.63
2023-03-13T14:27:55.187Z,95271.78
2023-03-13T14:30:23.094Z,95268.66
2023-03-13T14:32:50.857Z,95266.19
2023-03-13T14:35:22.527Z,95266.41
2023-03-13T14:37:54.351Z,95263.63
2023-03-13T14:40:23.329Z,95267.34
2023-03-13T14:42:51.773Z,95277.16
2023-03-13T14:45:39.768Z,95270.22
2023-03-13T14:48:18.533Z,95279.88
2023-03-13T14:50:45.359Z,95271.44
2023-03-13T14:53:21.786Z,95272.34
2023-03-13T14:55:49.492Z,95268.00
2023-03-13T14:58:25.358Z,95269.94
2023-03-13T15:00:52.205Z,95269.56
2023-03-13T15:03:21.936Z,95269.66
2023-03-13T15:06:07.346Z,95266.81
2023-03-13T15:08:35.802Z,95271.19
2023-03-13T15:11:02.428Z,95267.84
2023-03-13T15:13:39.155Z,95258.44
2023-03-13T15:16:16.661Z,95274.81
2023-03-13T15:18:43.512Z,95264.00
2023-03-13T15:21:13.112Z,95267.91
2023-03-13T15:23:45.813Z,95269.25
2023-03-13T15:26:12.626Z,95270.59
2023-03-13T15:28:39.248Z,95274.69
2023-03-13T15:31:07.142Z,95279.06
2023-03-13T15:33:34.592Z,95278.31
2023-03-13T15:36:01.440Z,95282.06
2023-03-13T15:38:28.074Z,95290.41
2023-03-13T15:40:54.977Z,95289.09
2023-03-13T15:43:22.790Z,95298.81
2023-03-13T15:45:53.208Z,95291.81
2023-03-13T15:48:19.893Z,95285.56
2023-03-13T15:50:49.699Z,95286.28
2023-03-13T15:53:20.570Z,95293.19
2023-03-13T15:55:48.056Z,95298.13
2023-03-13T15:58:15.051Z,95280.75
2023-03-13T16:00:42.474Z,95285.91
2023-03-13T16:03:19.496Z,95282.50
2023-03-13T16:05:49.200Z,95287.09
2023-03-13T16:08:29.175Z,95291.47
2023-03-13T16:11:01.009Z,95283.06
2023-03-13T16:13:27.605Z,95286.00
2023-03-13T16:15:54.332Z,95295.78
2023-03-13T16:18:22.357Z,95274.47
2023-03-13T16:20:49.544Z,95276.19
2023-03-13T16:23:17.097Z,95279.13
2023-03-13T16:25:44.726Z,95268.91
2023-03-13T16:28:12.277Z,95262.22
2023-03-13T16:30:43.987Z,95273.25
2023-03-13T16:33:11.197Z,95271.75
2023-03-13T16:35:38.376Z,95276.72
2023-03-13T16:38:05.166Z,95279.47
2023-03-13T16:40:32.690Z,95294.09
2023-03-13T16:42:59.950Z,95290.72
2023-03-13T16:45:27.222Z,95303.59
2023-03-13T16:47:53.847Z,95301.03
2023-03-13T16:50:25.331Z,95305.66
2023-03-13T16:52:52.390Z,95313.19
2023-03-13T16:55:19.832Z,95315.78
2023-03-13T16:57:46.738Z,95318.94
2023-03-13T17:00:21.451Z,95317.63
2023-03-13T17:02:48.560Z,95321.00
2023-03-13T17:05:16.204Z,95325.38
2023-03-13T17:07:47.953Z,95315.13
2023-03-13T17:10:17.482Z,95309.91
2023-03-13T17:12:44.147Z,95323.44
2023-03-13T17:15:11.977Z,95327.47
2023-03-13T17:17:38.788Z,95323.22
2023-03-13T17:20:06.545Z,95334.88
2023-03-13T17:22:33.376Z,95329.59
2023-03-13T17:25:01.070Z,95324.84
2023-03-13T17:27:27.864Z,95322.22
2023-03-13T17:29:54.434Z,95320.34
2023-03-13T17:32:23.949Z,95320.06
2023-03-13T17:34:51.099Z,95322.25
2023-03-13T17:37:19.030Z,95329.59
2023-03-13T17:39:46.318Z,95326.97
2023-03-13T17:42:13.103Z,95340.94
2023-03-13T17:44:41.095Z,95337.72
2023-03-13T17:47:15.073Z,95329.03
2023-03-13T17:49:42.510Z,95351.19
2023-03-13T17:52:16.843Z,95348.00
2023-03-13T17:54:44.585Z,95349.56
2023-03-13T17:57:16.301Z,95354.38
2023-03-13T17:59:43.286Z,95355.44
2023-03-13T18:02:14.394Z,95358.59
2023-03-13T18:04:41.505Z,95359.41
2023-03-13T18:07:43.763Z,95355.19
2023-03-13T18:10:22.844Z,95357.03
2023-03-13T18:12:51.432Z,95347.81
2023-03-13T18:15:18.566Z,95358.34
2023-03-13T18:17:45.834Z,95351.50
2023-03-13T18:20:14.444Z,95350.16
2023-03-13T18:22:42.308Z,95358.09
2023-03-13T18:25:10.240Z,95353.88
2023-03-13T18:27:36.960Z,95358.59
2023-03-13T18:30:03.992Z,95353.06
2023-03-13T18:32:30.695Z,95359.66
2023-03-13T18:34:57.363Z,95351.22
2023-03-13T18:37:26.792Z,95357.31
2023-03-13T18:39:55.756Z,95351.78
2023-03-13T18:42:23.610Z,95368.63
2023-03-13T18:44:50.808Z,95369.94
2023-03-13T18:47:18.364Z,95364.41
2023-03-13T18:49:45.174Z,95376.53
2023-03-13T18:52:12.991Z,95383.06
2023-03-13T18:54:39.596Z,95380.91
2023-03-13T18:57:11.384Z,95374.13
2023-03-13T18:59:38.124Z,95384.63
2023-03-13T19:02:06.081Z,95388.00
2023-03-13T19:04:32.768Z,95389.56
2023-03-13T19:06:59.339Z,95384.75
2023-03-13T19:09:42.846Z,95392.13
2023-03-13T19:12:11.509Z,95393.66
2023-03-13T19:14:38.132Z,95389.19
2023-03-13T19:17:07.045Z,95399.97
2023-03-13T19:19:33.900Z,95396.69
2023-03-13T19:22:01.182Z,95395.16
2023-03-13T19:24:28.743Z,95398.34
2023-03-13T19:26:58.948Z,95399.81
2023-03-13T19:29:26.876Z,95395.16
2023-03-13T19:31:55.025Z,95403.03
2023-03-13T19:34:23.003Z,95395.69
2023-03-13T19:36:49.660Z,95403.50
2023-03-13T19:39:18.063Z,95403.50
2023-03-13T19:41:45.332Z,95404.78
2023-03-13T19:44:12.087Z,95402.44
2023-03-13T19:46:43.484Z,95404.09
2023-03-13T19:49:11.745Z,95403.31
2023-03-13T19:51:38.627Z,95402.44
2023-03-13T19:54:05.538Z,95413.50
2023-03-13T19:56:32.337Z,95416.09
2023-03-13T19:59:06.401Z,95407.19
2023-03-13T20:01:33.236Z,95407.22
2023-03-13T20:04:00.019Z,95411.28
2023-03-13T20:06:28.166Z,95411.28
2023-03-13T20:08:55.795Z,95407.78
2023-03-13T20:11:23.137Z,95404.03
2023-03-13T20:13:49.802Z,95408.69
2023-03-13T20:16:16.978Z,95423.38
2023-03-13T20:18:43.701Z,95421.50
2023-03-13T20:21:10.726Z,95422.34
2023-03-13T20:23:37.378Z,95414.22
2023-03-13T20:26:10.833Z,95422.06
2023-03-13T20:28:38.451Z,95413.88
2023-03-13T20:31:06.084Z,95409.84
2023-03-13T20:33:33.065Z,95418.44
2023-03-13T20:36:00.316Z,95414.94
2023-03-13T20:38:27.840Z,95408.97
2023-03-13T20:40:55.540Z,95412.22
2023-03-13T20:43:23.001Z,95408.75
2023-03-13T20:45:49.674Z,95407.53
2023-03-13T20:48:16.438Z,95401.72
2023-03-13T20:50:43.393Z,95408.13
2023-03-13T20:53:10.748Z,95406.19
2023-03-13T20:55:37.999Z,95390.56
2023-03-13T20:58:05.165Z,95388.25
2023-03-13T21:00:32.192Z,95387.84
2023-03-13T21:02:58.819Z,95380.72
2023-03-13T21:05:25.498Z,95384.47
2023-03-13T21:07:52.236Z,95388.41
2023-03-13T21:10:19.004Z,95386.75
2023-03-13T21:12:45.967Z,95377.75
2023-03-13T21:15:13.180Z,95377.94
2023-03-13T21:17:39.946Z,95377.91
2023-03-13T21:20:11.844Z,95365.81
2023-03-13T21:22:39.628Z,95367.84
2023-03-13T21:25:06.845Z,95363.19
2023-03-13T21:27:33.478Z,95367.38
2023-03-13T21:30:00.353Z,95355.38
2023-03-13T21:32:27.139Z,95349.84
2023-03-13T21:34:53.771Z,95360.63
2023-03-13T21:37:20.420Z,95369.22
2023-03-13T21:39:50.143Z,95378.94
2023-03-13T21:42:18.265Z,95383.25
2023-03-13T21:44:45.638Z,95375.34
2023-03-13T21:47:12.399Z,95371.09
2023-03-13T21:49:39.066Z,95376.34
2023-03-13T21:52:05.632Z,95369.50
2023-03-13T21:54:32.179Z,95378.00
2023-03-13T21:56:58.938Z,95372.34
2023-03-13T21:59:27.287Z,95373.38
2023-03-13T22:01:54.249Z,95376.09
2023-03-13T22:04:21.110Z,95368.44
2023-03-13T22:06:47.696Z,95367.38
2023-03-13T22:09:14.343Z,95369.41
2023-03-13T22:11:41.031Z,95365.28
2023-03-13T22:14:07.704Z,95368.28
2023-03-13T22:16:34.434Z,95368.94
2023-03-13T22:19:00.970Z,95370.97
2023-03-13T22:21:27.688Z,95364.63
2023-03-13T22:23:54.218Z,95361.41
2023-03-13T22:26:21.048Z,95364.25
2023-03-13T22:28:47.631Z,95363.22
2023-03-13T22:31:14.160Z,95359.63
2023-03-13T22:33:40.877Z,95357.19
2023-03-13T22:36:08.220Z,95359.81
2023-03-13T22:38:38.862Z,95353.88
2023-03-13T22:41:06.824Z,95354.19
2023-03-13T22:43:33.840Z,95349.88
2023-03-13T22:46:00.806Z,95354.50
2023-03-13T22:48:27.694Z,95357.06
2023-03-13T22:51:00.371Z,95353.97
2023-03-13T22:53:27.313Z,95345.97
2023-03-13T22:55:53.973Z,95356.69
2023-03-13T22:58:20.681Z,95353.53
2023-03-13T23:00:47.740Z,95348.19
2023-03-13T23:03:14.435Z,95359.16
2023-03-13T23:05:42.486Z,95354.47
2023-03-13T23:08:09.610Z,95345.22
2023-03-13T23:10:36.922Z,95352.72
2023-03-13T23:13:04.254Z,95350.59
2023-03-13T23:15:42.999Z,95358.38
2023-03-13T23:18:17.461Z,95352.09
2023-03-13T23:20:44.255Z,95350.03
2023-03-13T23:23:10.921Z,95353.50
2023-03-13T23:25:40.552Z,95348.59
2023-03-13T23:28:07.275Z,95348.44
2023-03-13T23:30:34.070Z,95352.28
2023-03-13T23:33:00.664Z,95353.34
2023-03-13T23:35:27.350Z,95349.53
2023-03-13T23:37:54.388Z,95359.53
2023-03-13T23:40:21.966Z,95354.47
2023-03-13T23:42:50.407Z,95355.91
2023-03-13T23:45:18.409Z,95343.44
2023-03-13T23:47:45.613Z,95352.28
2023-03-13T23:50:13.104Z,95353.53
2023-03-13T23:52:40.527Z,95348.13
2023-03-13T23:55:07.802Z,95345.13
2023-03-13T23:57:37.642Z,95344.81
